sensor_id;sensor_type;location;lat;lon;timestamp;P1;durP1;ratioP1;P2;durP2;ratioP2
10947;SDS011;5526;42.070;24.752;2023-03-14T00:00:11;3.83;;;3.53;;
10947;SDS011;5526;42.070;24.752;2023-03-14T00:02:40;5.68;;;4.28;;
10947;SDS011;5526;42.070;24.752;2023-03-14T00:05:07;12.93;;;8.02;;
10947;SDS011;5526;42.070;24.752;2023-03-14T00:07:35;9.05;;;5.68;;
10947;SDS011;5526;42.070;24.752;2023-03-14T00:10:05;8.77;;;5.10;;
10947;SDS011;5526;42.070;24.752;2023-03-14T00:12:34;5.97;;;4.55;;
10947;SDS011;5526;42.070;24.752;2023-03-14T00:15:01;6.32;;;4.38;;
10947;SDS011;5526;42.070;24.752;2023-03-14T00:17:31;6.00;;;4.40;;
10947;SDS011;5526;42.070;24.752;2023-03-14T00:19:58;4.90;;;3.42;;
10947;SDS011;5526;42.070;24.752;2023-03-14T00:22:29;4.97;;;3.13;;
10947;SDS011;5526;42.070;24.752;2023-03-14T00:24:56;3.40;;;2.92;;
10947;SDS011;5526;42.070;24.752;2023-03-14T00:27:24;3.60;;;2.83;;
10947;SDS011;5526;42.070;24.752;2023-03-14T00:29:51;4.10;;;2.58;;
10947;SDS011;5526;42.070;24.752;2023-03-14T00:32:18;3.55;;;2.70;;
10947;SDS011;5526;42.070;24.752;2023-03-14T00:34:46;3.00;;;2.63;;
10947;SDS011;5526;42.070;24.752;2023-03-14T00:37:13;2.72;;;2.53;;
10947;SDS011;5526;42.070;24.752;2023-03-14T00:39:40;2.72;;;2.53;;
10947;SDS011;5526;42.070;24.752;2023-03-14T00:42:08;3.38;;;3.08;;
10947;SDS011;5526;42.070;24.752;2023-03-14T00:44:35;4.13;;;3.35;;
10947;SDS011;5526;42.070;24.752;2023-03-14T00:47:02;4.22;;;3.83;;
10947;SDS011;5526;42.070;24.752;2023-03-14T00:49:29;3.42;;;3.10;;
10947;SDS011;5526;42.070;24.752;2023-03-14T00:51:57;4.72;;;3.20;;
10947;SDS011;5526;42.070;24.752;2023-03-14T00:54:24;4.30;;;3.20;;
10947;SDS011;5526;42.070;24.752;2023-03-14T00:56:51;4.38;;;3.00;;
10947;SDS011;5526;42.070;24.752;2023-03-14T00:59:19;4.93;;;3.88;;
10947;SDS011;5526;42.070;24.752;2023-03-14T01:01:46;6.43;;;4.15;;
10947;SDS011;5526;42.070;24.752;2023-03-14T01:04:13;6.13;;;4.75;;
10947;SDS011;5526;42.070;24.752;2023-03-14T01:06:40;7.47;;;4.38;;
10947;SDS011;5526;42.070;24.752;2023-03-14T01:09:08;8.48;;;5.75;;
10947;SDS011;5526;42.070;24.752;2023-03-14T01:11:35;8.90;;;5.45;;
10947;SDS011;5526;42.070;24.752;2023-03-14T01:14:03;7.40;;;4.88;;
10947;SDS011;5526;42.070;24.752;2023-03-14T01:16:31;5.95;;;4.60;;
10947;SDS011;5526;42.070;24.752;2023-03-14T01:18:58;5.20;;;3.80;;
10947;SDS011;5526;42.070;24.752;2023-03-14T01:21:26;4.50;;;3.78;;
10947;SDS011;5526;42.070;24.752;2023-03-14T01:23:55;3.67;;;3.33;;
10947;SDS011;5526;42.070;24.752;2023-03-14T01:26:25;4.13;;;3.33;;
10947;SDS011;5526;42.070;24.752;2023-03-14T01:28:54;4.75;;;3.60;;
10947;SDS011;5526;42.070;24.752;2023-03-14T01:31:22;4.25;;;3.25;;
10947;SDS011;5526;42.070;24.752;2023-03-14T01:33:50;4.32;;;3.58;;
10947;SDS011;5526;42.070;24.752;2023-03-14T01:36:17;4.10;;;3.50;;
10947;SDS011;5526;42.070;24.752;2023-03-14T01:38:45;5.30;;;4.03;;
10947;SDS011;5526;42.070;24.752;2023-03-14T01:41:13;5.47;;;3.90;;
10947;SDS011;5526;42.070;24.752;2023-03-14T01:43:43;4.40;;;4.00;;
10947;SDS011;5526;42.070;24.752;2023-03-14T01:49:03;5.07;;;4.57;;
10947;SDS011;5526;42.070;24.752;2023-03-14T01:51:36;5.93;;;5.30;;
10947;SDS011;5526;42.070;24.752;2023-03-14T01:54:10;5.80;;;5.20;;
10947;SDS011;5526;42.070;24.752;2023-03-14T01:56:41;6.75;;;4.75;;
10947;SDS011;5526;42.070;24.752;2023-03-14T01:59:12;5.00;;;4.47;;
10947;SDS011;5526;42.070;24.752;2023-03-14T02:01:40;5.10;;;4.53;;
10947;SDS011;5526;42.070;24.752;2023-03-14T02:04:10;5.57;;;4.80;;
10947;SDS011;5526;42.070;24.752;2023-03-14T02:06:41;7.03;;;4.60;;
10947;SDS011;5526;42.070;24.752;2023-03-14T02:09:13;5.28;;;4.47;;
10947;SDS011;5526;42.070;24.752;2023-03-14T02:11:41;5.32;;;4.80;;
10947;SDS011;5526;42.070;24.752;2023-03-14T02:14:15;7.07;;;5.05;;
10947;SDS011;5526;42.070;24.752;2023-03-14T02:16:50;6.10;;;5.50;;
10947;SDS011;5526;42.070;24.752;2023-03-14T02:19:17;6.20;;;5.43;;
10947;SDS011;5526;42.070;24.752;2023-03-14T02:21:54;5.70;;;5.20;;
10947;SDS011;5526;42.070;24.752;2023-03-14T02:24:31;5.40;;;4.90;;
10947;SDS011;5526;42.070;24.752;2023-03-14T02:27:08;6.53;;;5.30;;
10947;SDS011;5526;42.070;24.752;2023-03-14T02:29:38;8.32;;;5.20;;
10947;SDS011;5526;42.070;24.752;2023-03-14T02:32:10;6.57;;;4.78;;
10947;SDS011;5526;42.070;24.752;2023-03-14T02:34:38;5.60;;;5.00;;
10947;SDS011;5526;42.070;24.752;2023-03-14T02:37:06;5.88;;;4.97;;
10947;SDS011;5526;42.070;24.752;2023-03-14T02:39:35;5.75;;;5.13;;
10947;SDS011;5526;42.070;24.752;2023-03-14T02:42:05;5.25;;;4.63;;
10947;SDS011;5526;42.070;24.752;2023-03-14T02:44:33;5.55;;;4.63;;
10947;SDS011;5526;42.070;24.752;2023-03-14T02:47:01;7.07;;;5.43;;
10947;SDS011;5526;42.070;24.752;2023-03-14T02:49:29;7.30;;;5.07;;
10947;SDS011;5526;42.070;24.752;2023-03-14T02:52:00;5.90;;;5.18;;
10947;SDS011;5526;42.070;24.752;2023-03-14T02:54:26;5.57;;;5.00;;
10947;SDS011;5526;42.070;24.752;2023-03-14T02:56:53;7.43;;;5.60;;
10947;SDS011;5526;42.070;24.752;2023-03-14T02:59:20;5.68;;;5.00;;
10947;SDS011;5526;42.070;24.752;2023-03-14T03:01:49;5.60;;;4.95;;
10947;SDS011;5526;42.070;24.752;2023-03-14T03:04:16;6.32;;;5.70;;
10947;SDS011;5526;42.070;24.752;2023-03-14T03:06:43;6.60;;;5.95;;
10947;SDS011;5526;42.070;24.752;2023-03-14T03:09:10;6.35;;;5.30;;
10947;SDS011;5526;42.070;24.752;2023-03-14T03:11:37;6.82;;;5.93;;
10947;SDS011;5526;42.070;24.752;2023-03-14T03:14:04;7.18;;;6.40;;
10947;SDS011;5526;42.070;24.752;2023-03-14T03:16:31;7.72;;;6.75;;
10947;SDS011;5526;42.070;24.752;2023-03-14T03:19:00;6.78;;;6.15;;
10947;SDS011;5526;42.070;24.752;2023-03-14T03:21:27;6.90;;;6.20;;
10947;SDS011;5526;42.070;24.752;2023-03-14T03:23:54;7.13;;;6.15;;
10947;SDS011;5526;42.070;24.752;2023-03-14T03:26:21;6.88;;;6.15;;
10947;SDS011;5526;42.070;24.752;2023-03-14T03:28:50;7.05;;;6.20;;
10947;SDS011;5526;42.070;24.752;2023-03-14T03:31:17;8.48;;;6.45;;
10947;SDS011;5526;42.070;24.752;2023-03-14T03:33:44;9.80;;;6.43;;
10947;SDS011;5526;42.070;24.752;2023-03-14T03:36:12;8.93;;;6.95;;
10947;SDS011;5526;42.070;24.752;2023-03-14T03:38:39;8.15;;;6.78;;
10947;SDS011;5526;42.070;24.752;2023-03-14T03:41:07;7.50;;;6.72;;
10947;SDS011;5526;42.070;24.752;2023-03-14T03:43:34;8.07;;;7.10;;
10947;SDS011;5526;42.070;24.752;2023-03-14T03:46:02;8.02;;;7.22;;
10947;SDS011;5526;42.070;24.752;2023-03-14T03:48:30;8.73;;;6.78;;
10947;SDS011;5526;42.070;24.752;2023-03-14T03:50:57;7.15;;;6.38;;
10947;SDS011;5526;42.070;24.752;2023-03-14T03:53:26;7.30;;;6.30;;
10947;SDS011;5526;42.070;24.752;2023-03-14T03:55:53;7.43;;;5.97;;
10947;SDS011;5526;42.070;24.752;2023-03-14T03:58:20;7.75;;;6.18;;
10947;SDS011;5526;42.070;24.752;2023-03-14T04:00:47;7.57;;;6.78;;
10947;SDS011;5526;42.070;24.752;2023-03-14T04:03:14;6.72;;;6.07;;
10947;SDS011;5526;42.070;24.752;2023-03-14T04:05:41;6.90;;;5.85;;
10947;SDS011;5526;42.070;24.752;2023-03-14T04:08:08;6.03;;;5.43;;
10947;SDS011;5526;42.070;24.752;2023-03-14T04:10:37;7.78;;;5.20;;
10947;SDS011;5526;42.070;24.752;2023-03-14T04:13:04;5.80;;;5.25;;
10947;SDS011;5526;42.070;24.752;2023-03-14T04:15:31;7.32;;;5.47;;
10947;SDS011;5526;42.070;24.752;2023-03-14T04:17:58;9.23;;;6.15;;
10947;SDS011;5526;42.070;24.752;2023-03-14T04:20:25;8.95;;;6.13;;
10947;SDS011;5526;42.070;24.752;2023-03-14T04:22:52;7.05;;;5.18;;
10947;SDS011;5526;42.070;24.752;2023-03-14T04:25:19;6.22;;;5.57;;
10947;SDS011;5526;42.070;24.752;2023-03-14T04:27:48;6.68;;;5.07;;
10947;SDS011;5526;42.070;24.752;2023-03-14T04:30:15;5.43;;;4.93;;
10947;SDS011;5526;42.070;24.752;2023-03-14T04:32:42;7.03;;;5.70;;
10947;SDS011;5526;42.070;24.752;2023-03-14T04:35:09;6.30;;;5.53;;
10947;SDS011;5526;42.070;24.752;2023-03-14T04:37:36;6.45;;;5.85;;
10947;SDS011;5526;42.070;24.752;2023-03-14T04:40:03;7.53;;;6.18;;
10947;SDS011;5526;42.070;24.752;2023-03-14T04:42:32;9.18;;;7.03;;
10947;SDS011;5526;42.070;24.752;2023-03-14T04:45:00;7.05;;;6.35;;
10947;SDS011;5526;42.070;24.752;2023-03-14T04:47:27;7.50;;;6.10;;
10947;SDS011;5526;42.070;24.752;2023-03-14T04:49:54;9.52;;;6.53;;
10947;SDS011;5526;42.070;24.752;2023-03-14T04:52:21;10.25;;;7.15;;
10947;SDS011;5526;42.070;24.752;2023-03-14T04:54:48;10.00;;;7.07;;
10947;SDS011;5526;42.070;24.752;2023-03-14T04:57:15;8.02;;;7.22;;
10947;SDS011;5526;42.070;24.752;2023-03-14T04:59:42;7.60;;;6.50;;
10947;SDS011;5526;42.070;24.752;2023-03-14T05:02:11;10.00;;;6.20;;
10947;SDS011;5526;42.070;24.752;2023-03-14T05:04:38;9.85;;;6.10;;
10947;SDS011;5526;42.070;24.752;2023-03-14T05:07:05;10.35;;;8.10;;
10947;SDS011;5526;42.070;24.752;2023-03-14T05:09:32;8.50;;;7.50;;
10947;SDS011;5526;42.070;24.752;2023-03-14T05:11:59;9.15;;;6.70;;
10947;SDS011;5526;42.070;24.752;2023-03-14T05:14:26;8.40;;;6.05;;
10947;SDS011;5526;42.070;24.752;2023-03-14T05:16:53;9.90;;;6.38;;
10947;SDS011;5526;42.070;24.752;2023-03-14T05:19:22;10.85;;;7.32;;
10947;SDS011;5526;42.070;24.752;2023-03-14T05:21:49;22.35;;;12.68;;
10947;SDS011;5526;42.070;24.752;2023-03-14T05:24:16;17.63;;;12.43;;
10947;SDS011;5526;42.070;24.752;2023-03-14T05:26:43;14.32;;;10.40;;
10947;SDS011;5526;42.070;24.752;2023-03-14T05:29:10;10.85;;;9.70;;
10947;SDS011;5526;42.070;24.752;2023-03-14T05:31:37;14.20;;;9.00;;
10947;SDS011;5526;42.070;24.752;2023-03-14T05:34:04;12.23;;;8.90;;
10947;SDS011;5526;42.070;24.752;2023-03-14T05:36:33;9.38;;;7.90;;
10947;SDS011;5526;42.070;24.752;2023-03-14T05:39:00;9.23;;;7.60;;
10947;SDS011;5526;42.070;24.752;2023-03-14T05:41:27;9.23;;;8.25;;
10947;SDS011;5526;42.070;24.752;2023-03-14T05:43:54;8.60;;;7.28;;
10947;SDS011;5526;42.070;24.752;2023-03-14T05:46:21;8.82;;;7.93;;
10947;SDS011;5526;42.070;24.752;2023-03-14T05:48:48;9.52;;;8.10;;
10947;SDS011;5526;42.070;24.752;2023-03-14T05:51:15;8.73;;;7.82;;
10947;SDS011;5526;42.070;24.752;2023-03-14T05:53:44;9.52;;;7.43;;
10947;SDS011;5526;42.070;24.752;2023-03-14T05:56:11;7.85;;;6.90;;
10947;SDS011;5526;42.070;24.752;2023-03-14T05:58:38;10.52;;;7.68;;
10947;SDS011;5526;42.070;24.752;2023-03-14T06:01:05;11.32;;;8.02;;
10947;SDS011;5526;42.070;24.752;2023-03-14T06:03:33;10.15;;;8.23;;
10947;SDS011;5526;42.070;24.752;2023-03-14T06:06:00;11.15;;;9.30;;
10947;SDS011;5526;42.070;24.752;2023-03-14T06:08:27;11.23;;;8.95;;
10947;SDS011;5526;42.070;24.752;2023-03-14T06:10:56;10.80;;;9.05;;
10947;SDS011;5526;42.070;24.752;2023-03-14T06:13:23;10.10;;;9.10;;
10947;SDS011;5526;42.070;24.752;2023-03-14T06:15:50;11.23;;;8.68;;
10947;SDS011;5526;42.070;24.752;2023-03-14T06:18:18;10.48;;;8.52;;
10947;SDS011;5526;42.070;24.752;2023-03-14T06:20:45;13.27;;;9.02;;
10947;SDS011;5526;42.070;24.752;2023-03-14T06:23:11;14.40;;;10.18;;
10947;SDS011;5526;42.070;24.752;2023-03-14T06:25:38;14.45;;;9.25;;
10947;SDS011;5526;42.070;24.752;2023-03-14T06:28:07;10.45;;;9.32;;
10947;SDS011;5526;42.070;24.752;2023-03-14T06:30:34;13.23;;;10.48;;
10947;SDS011;5526;42.070;24.752;2023-03-14T06:33:01;13.90;;;11.15;;
10947;SDS011;5526;42.070;24.752;2023-03-14T06:35:28;12.93;;;11.30;;
10947;SDS011;5526;42.070;24.752;2023-03-14T06:37:55;14.85;;;11.35;;
10947;SDS011;5526;42.070;24.752;2023-03-14T06:40:22;14.77;;;10.32;;
10947;SDS011;5526;42.070;24.752;2023-03-14T06:42:49;11.48;;;9.48;;
10947;SDS011;5526;42.070;24.752;2023-03-14T06:45:17;11.77;;;9.40;;
10947;SDS011;5526;42.070;24.752;2023-03-14T06:47:44;14.18;;;10.10;;
10947;SDS011;5526;42.070;24.752;2023-03-14T06:50:11;16.02;;;10.23;;
10947;SDS011;5526;42.070;24.752;2023-03-14T06:52:39;12.82;;;9.73;;
10947;SDS011;5526;42.070;24.752;2023-03-14T06:55:11;13.15;;;9.70;;
10947;SDS011;5526;42.070;24.752;2023-03-14T06:57:38;10.13;;;9.13;;
10947;SDS011;5526;42.070;24.752;2023-03-14T07:00:05;13.38;;;9.98;;
10947;SDS011;5526;42.070;24.752;2023-03-14T07:02:35;15.27;;;9.95;;
10947;SDS011;5526;42.070;24.752;2023-03-14T07:05:02;11.65;;;9.73;;
10947;SDS011;5526;42.070;24.752;2023-03-14T07:07:29;10.60;;;9.13;;
10947;SDS011;5526;42.070;24.752;2023-03-14T07:09:57;10.35;;;8.48;;
10947;SDS011;5526;42.070;24.752;2023-03-14T07:12:24;11.82;;;9.18;;
10947;SDS011;5526;42.070;24.752;2023-03-14T07:14:51;16.77;;;9.75;;
10947;SDS011;5526;42.070;24.752;2023-03-14T07:17:18;9.77;;;8.77;;
10947;SDS011;5526;42.070;24.752;2023-03-14T07:19:46;10.93;;;8.32;;
10947;SDS011;5526;42.070;24.752;2023-03-14T07:22:13;12.15;;;8.13;;
10947;SDS011;5526;42.070;24.752;2023-03-14T07:24:40;8.50;;;7.32;;
10947;SDS011;5526;42.070;24.752;2023-03-14T07:27:07;10.05;;;7.38;;
10947;SDS011;5526;42.070;24.752;2023-03-14T07:29:34;8.13;;;7.32;;
10947;SDS011;5526;42.070;24.752;2023-03-14T07:32:01;13.70;;;7.45;;
10947;SDS011;5526;42.070;24.752;2023-03-14T07:34:28;8.32;;;7.43;;
10947;SDS011;5526;42.070;24.752;2023-03-14T07:36:57;8.93;;;6.90;;
10947;SDS011;5526;42.070;24.752;2023-03-14T07:39:24;8.98;;;6.68;;
10947;SDS011;5526;42.070;24.752;2023-03-14T07:41:51;8.30;;;6.32;;
10947;SDS011;5526;42.070;24.752;2023-03-14T07:44:18;9.18;;;6.05;;
10947;SDS011;5526;42.070;24.752;2023-03-14T07:46:44;7.47;;;6.10;;
10947;SDS011;5526;42.070;24.752;2023-03-14T07:49:11;8.13;;;6.38;;
10947;SDS011;5526;42.070;24.752;2023-03-14T07:51:38;7.80;;;6.60;;
10947;SDS011;5526;42.070;24.752;2023-03-14T07:54:07;9.48;;;6.50;;
10947;SDS011;5526;42.070;24.752;2023-03-14T07:56:34;9.60;;;6.82;;
10947;SDS011;5526;42.070;24.752;2023-03-14T07:59:01;7.50;;;6.72;;
10947;SDS011;5526;42.070;24.752;2023-03-14T08:01:28;7.55;;;6.63;;
10947;SDS011;5526;42.070;24.752;2023-03-14T08:03:55;9.27;;;6.65;;
10947;SDS011;5526;42.070;24.752;2023-03-14T08:06:22;6.95;;;6.25;;
10947;SDS011;5526;42.070;24.752;2023-03-14T08:08:49;6.97;;;6.28;;
10947;SDS011;5526;42.070;24.752;2023-03-14T08:11:18;7.13;;;5.50;;
10947;SDS011;5526;42.070;24.752;2023-03-14T08:13:45;6.93;;;5.80;;
10947;SDS011;5526;42.070;24.752;2023-03-14T08:16:15;6.22;;;5.63;;
10947;SDS011;5526;42.070;24.752;2023-03-14T08:18:42;6.82;;;6.13;;
10947;SDS011;5526;42.070;24.752;2023-03-14T08:21:09;6.90;;;6.13;;
10947;SDS011;5526;42.070;24.752;2023-03-14T08:23:37;7.60;;;5.57;;
10947;SDS011;5526;42.070;24.752;2023-03-14T08:26:04;7.93;;;5.43;;
10947;SDS011;5526;42.070;24.752;2023-03-14T08:28:33;5.90;;;5.25;;
10947;SDS011;5526;42.070;24.752;2023-03-14T08:31:00;5.55;;;5.05;;
10947;SDS011;5526;42.070;24.752;2023-03-14T08:33:28;6.20;;;5.60;;
10947;SDS011;5526;42.070;24.752;2023-03-14T08:35:56;7.00;;;6.10;;
10947;SDS011;5526;42.070;24.752;2023-03-14T08:38:25;6.72;;;5.97;;
10947;SDS011;5526;42.070;24.752;2023-03-14T08:40:54;5.78;;;5.20;;
10947;SDS011;5526;42.070;24.752;2023-03-14T08:43:23;6.35;;;5.63;;
10947;SDS011;5526;42.070;24.752;2023-03-14T08:45:51;6.00;;;5.22;;
10947;SDS011;5526;42.070;24.752;2023-03-14T08:48:18;5.68;;;5.15;;
10947;SDS011;5526;42.070;24.752;2023-03-14T08:50:45;6.13;;;5.45;;
10947;SDS011;5526;42.070;24.752;2023-03-14T08:53:13;6.50;;;5.90;;
10947;SDS011;5526;42.070;24.752;2023-03-14T08:55:40;6.15;;;5.40;;
10947;SDS011;5526;42.070;24.752;2023-03-14T08:58:07;5.90;;;5.30;;
10947;SDS011;5526;42.070;24.752;2023-03-14T09:00:34;6.18;;;4.97;;
10947;SDS011;5526;42.070;24.752;2023-03-14T09:03:02;6.60;;;5.28;;
10947;SDS011;5526;42.070;24.752;2023-03-14T09:05:32;7.38;;;5.38;;
10947;SDS011;5526;42.070;24.752;2023-03-14T09:08:00;5.72;;;4.93;;
10947;SDS011;5526;42.070;24.752;2023-03-14T09:10:27;5.32;;;4.82;;
10947;SDS011;5526;42.070;24.752;2023-03-14T09:12:54;6.20;;;5.10;;
10947;SDS011;5526;42.070;24.752;2023-03-14T09:15:22;4.97;;;4.47;;
10947;SDS011;5526;42.070;24.752;2023-03-14T09:17:50;7.68;;;5.50;;
10947;SDS011;5526;42.070;24.752;2023-03-14T09:20:18;5.80;;;4.88;;
10947;SDS011;5526;42.070;24.752;2023-03-14T09:22:45;6.10;;;4.30;;
10947;SDS011;5526;42.070;24.752;2023-03-14T09:25:12;6.32;;;4.40;;
10947;SDS011;5526;42.070;24.752;2023-03-14T09:27:39;4.72;;;4.22;;
10947;SDS011;5526;42.070;24.752;2023-03-14T09:30:07;6.38;;;4.55;;
10947;SDS011;5526;42.070;24.752;2023-03-14T09:32:35;5.30;;;4.80;;
10947;SDS011;5526;42.070;24.752;2023-03-14T09:35:03;5.95;;;5.15;;
10947;SDS011;5526;42.070;24.752;2023-03-14T09:37:32;6.22;;;4.90;;
10947;SDS011;5526;42.070;24.752;2023-03-14T09:39:59;8.40;;;5.40;;
10947;SDS011;5526;42.070;24.752;2023-03-14T09:42:26;5.15;;;4.65;;
10947;SDS011;5526;42.070;24.752;2023-03-14T09:44:54;5.15;;;4.13;;
10947;SDS011;5526;42.070;24.752;2023-03-14T09:47:23;7.10;;;5.00;;
10947;SDS011;5526;42.070;24.752;2023-03-14T09:49:52;5.00;;;4.35;;
10947;SDS011;5526;42.070;24.752;2023-03-14T09:52:20;6.25;;;5.20;;
10947;SDS011;5526;42.070;24.752;2023-03-14T09:54:52;6.55;;;4.88;;
10947;SDS011;5526;42.070;24.752;2023-03-14T09:57:21;5.30;;;4.78;;
10947;SDS011;5526;42.070;24.752;2023-03-14T09:59:51;7.35;;;4.97;;
10947;SDS011;5526;42.070;24.752;2023-03-14T10:02:23;5.50;;;5.00;;
10947;SDS011;5526;42.070;24.752;2023-03-14T10:04:52;5.43;;;4.93;;
10947;SDS011;5526;42.070;24.752;2023-03-14T10:07:21;5.68;;;5.18;;
10947;SDS011;5526;42.070;24.752;2023-03-14T10:09:55;6.22;;;4.97;;
10947;SDS011;5526;42.070;24.752;2023-03-14T10:12:29;7.00;;;5.00;;
10947;SDS011;5526;42.070;24.752;2023-03-14T10:14:57;6.43;;;4.57;;
10947;SDS011;5526;42.070;24.752;2023-03-14T10:17:37;5.32;;;4.45;;
10947;SDS011;5526;42.070;24.752;2023-03-14T10:20:05;4.82;;;4.40;;
10947;SDS011;5526;42.070;24.752;2023-03-14T10:22:35;5.15;;;4.53;;
10947;SDS011;5526;42.070;24.752;2023-03-14T10:25:05;4.15;;;3.88;;
10947;SDS011;5526;42.070;24.752;2023-03-14T10:27:50;4.90;;;4.50;;
10947;SDS011;5526;42.070;24.752;2023-03-14T10:30:26;6.43;;;5.05;;
10947;SDS011;5526;42.070;24.752;2023-03-14T10:32:56;5.22;;;4.45;;
10947;SDS011;5526;42.070;24.752;2023-03-14T10:35:23;5.00;;;4.43;;
10947;SDS011;5526;42.070;24.752;2023-03-14T10:37:51;5.72;;;4.40;;
10947;SDS011;5526;42.070;24.752;2023-03-14T10:40:25;6.43;;;4.68;;
10947;SDS011;5526;42.070;24.752;2023-03-14T10:42:57;4.85;;;4.30;;
10947;SDS011;5526;42.070;24.752;2023-03-14T10:45:28;4.40;;;4.00;;
10947;SDS011;5526;42.070;24.752;2023-03-14T10:48:06;4.20;;;3.90;;
10947;SDS011;5526;42.070;24.752;2023-03-14T10:50:47;3.97;;;3.67;;
10947;SDS011;5526;42.070;24.752;2023-03-14T10:53:17;4.18;;;3.60;;
10947;SDS011;5526;42.070;24.752;2023-03-14T10:55:46;5.43;;;4.30;;
10947;SDS011;5526;42.070;24.752;2023-03-14T10:58:18;4.65;;;4.25;;
10947;SDS011;5526;42.070;24.752;2023-03-14T11:00:48;4.18;;;3.67;;
10947;SDS011;5526;42.070;24.752;2023-03-14T11:03:19;4.85;;;4.40;;
10947;SDS011;5526;42.070;24.752;2023-03-14T11:05:49;4.63;;;4.28;;
10947;SDS011;5526;42.070;24.752;2023-03-14T11:08:23;6.03;;;4.47;;
10947;SDS011;5526;42.070;24.752;2023-03-14T11:10:57;4.28;;;3.90;;
10947;SDS011;5526;42.070;24.752;2023-03-14T11:13:37;4.75;;;4.35;;
10947;SDS011;5526;42.070;24.752;2023-03-14T11:16:13;7.07;;;4.70;;
10947;SDS011;5526;42.070;24.752;2023-03-14T11:18:48;11.27;;;5.07;;
10947;SDS011;5526;42.070;24.752;2023-03-14T11:21:27;5.40;;;4.90;;
10947;SDS011;5526;42.070;24.752;2023-03-14T11:24:06;5.65;;;5.10;;
10947;SDS011;5526;42.070;24.752;2023-03-14T11:26:46;6.25;;;5.45;;
10947;SDS011;5526;42.070;24.752;2023-03-14T11:29:20;7.28;;;5.05;;
10947;SDS011;5526;42.070;24.752;2023-03-14T11:31:49;5.45;;;4.95;;
10947;SDS011;5526;42.070;24.752;2023-03-14T11:34:22;5.63;;;5.13;;
10947;SDS011;5526;42.070;24.752;2023-03-14T11:36:56;6.38;;;5.10;;
10947;SDS011;5526;42.070;24.752;2023-03-14T11:39:29;5.53;;;5.00;;
10947;SDS011;5526;42.070;24.752;2023-03-14T11:42:07;5.53;;;5.13;;
10947;SDS011;5526;42.070;24.752;2023-03-14T11:44:39;6.22;;;5.03;;
10947;SDS011;5526;42.070;24.752;2023-03-14T11:47:07;5.95;;;5.45;;
10947;SDS011;5526;42.070;24.752;2023-03-14T11:49:40;10.00;;;4.35;;
10947;SDS011;5526;42.070;24.752;2023-03-14T11:52:13;5.00;;;4.60;;
10947;SDS011;5526;42.070;24.752;2023-03-14T11:54:46;5.25;;;4.85;;
10947;SDS011;5526;42.070;24.752;2023-03-14T11:57:18;7.13;;;4.53;;
10947;SDS011;5526;42.070;24.752;2023-03-14T11:59:48;4.93;;;4.47;;
10947;SDS011;5526;42.070;24.752;2023-03-14T12:02:21;5.15;;;4.47;;
10947;SDS011;5526;42.070;24.752;2023-03-14T12:08:00;5.18;;;3.78;;
10947;SDS011;5526;42.070;24.752;2023-03-14T12:10:45;4.88;;;4.45;;
10947;SDS011;5526;42.070;24.752;2023-03-14T12:13:17;5.07;;;4.63;;
10947;SDS011;5526;42.070;24.752;2023-03-14T12:15:46;5.72;;;4.82;;
10947;SDS011;5526;42.070;24.752;2023-03-14T12:18:19;5.00;;;4.13;;
10947;SDS011;5526;42.070;24.752;2023-03-14T12:20:53;5.57;;;4.47;;
10947;SDS011;5526;42.070;24.752;2023-03-14T12:23:22;8.10;;;4.85;;
10947;SDS011;5526;42.070;24.752;2023-03-14T12:28:43;6.13;;;4.85;;
10947;SDS011;5526;42.070;24.752;2023-03-14T12:34:31;7.45;;;5.20;;
10947;SDS011;5526;42.070;24.752;2023-03-14T12:37:04;5.22;;;4.78;;
10947;SDS011;5526;42.070;24.752;2023-03-14T12:39:53;5.75;;;4.70;;
10947;SDS011;5526;42.070;24.752;2023-03-14T12:42:42;5.38;;;4.72;;
10947;SDS011;5526;42.070;24.752;2023-03-14T12:45:23;11.23;;;5.53;;
10947;SDS011;5526;42.070;24.752;2023-03-14T12:47:56;5.32;;;4.82;;
10947;SDS011;5526;42.070;24.752;2023-03-14T12:50:39;6.28;;;4.88;;
10947;SDS011;5526;42.070;24.752;2023-03-14T12:53:18;5.43;;;4.68;;
10947;SDS011;5526;42.070;24.752;2023-03-14T12:56:07;5.72;;;4.50;;
10947;SDS011;5526;42.070;24.752;2023-03-14T12:58:47;5.72;;;4.80;;
10947;SDS011;5526;42.070;24.752;2023-03-14T13:01:27;4.85;;;4.40;;
10947;SDS011;5526;42.070;24.752;2023-03-14T13:03:55;5.78;;;4.72;;
10947;SDS011;5526;42.070;24.752;2023-03-14T13:12:16;5.03;;;3.95;;
10947;SDS011;5526;42.070;24.752;2023-03-14T13:14:45;4.63;;;4.22;;
10947;SDS011;5526;42.070;24.752;2023-03-14T13:17:18;4.40;;;4.00;;
10947;SDS011;5526;42.070;24.752;2023-03-14T13:19:51;4.57;;;3.95;;
10947;SDS011;5526;42.070;24.752;2023-03-14T13:22:21;5.00;;;3.92;;
10947;SDS011;5526;42.070;24.752;2023-03-14T13:24:58;4.97;;;3.60;;
10947;SDS011;5526;42.070;24.752;2023-03-14T13:27:27;4.55;;;4.13;;
10947;SDS011;5526;42.070;24.752;2023-03-14T13:29:58;4.68;;;3.55;;
10947;SDS011;5526;42.070;24.752;2023-03-14T13:32:27;4.88;;;4.20;;
10947;SDS011;5526;42.070;24.752;2023-03-14T13:34:55;4.40;;;4.00;;
10947;SDS011;5526;42.070;24.752;2023-03-14T13:37:24;4.32;;;3.53;;
10947;SDS011;5526;42.070;24.752;2023-03-14T13:39:52;4.07;;;3.45;;
10947;SDS011;5526;42.070;24.752;2023-03-14T13:42:21;6.65;;;3.97;;
10947;SDS011;5526;42.070;24.752;2023-03-14T13:44:51;3.47;;;3.13;;
10947;SDS011;5526;42.070;24.752;2023-03-14T13:47:20;4.10;;;3.70;;
10947;SDS011;5526;42.070;24.752;2023-03-14T13:49:50;4.18;;;3.80;;
10947;SDS011;5526;42.070;24.752;2023-03-14T13:52:27;4.18;;;3.88;;
10947;SDS011;5526;42.070;24.752;2023-03-14T13:54:56;5.32;;;3.65;;
10947;SDS011;5526;42.070;24.752;2023-03-14T13:57:25;4.47;;;3.65;;
10947;SDS011;5526;42.070;24.752;2023-03-14T13:59:59;4.30;;;3.97;;
10947;SDS011;5526;42.070;24.752;2023-03-14T14:02:31;4.88;;;3.70;;
10947;SDS011;5526;42.070;24.752;2023-03-14T14:05:04;4.40;;;3.80;;
10947;SDS011;5526;42.070;24.752;2023-03-14T14:07:32;5.25;;;4.10;;
10947;SDS011;5526;42.070;24.752;2023-03-14T14:09:59;5.95;;;4.28;;
10947;SDS011;5526;42.070;24.752;2023-03-14T14:12:27;4.65;;;4.20;;
10947;SDS011;5526;42.070;24.752;2023-03-14T14:14:59;6.18;;;3.80;;
10947;SDS011;5526;42.070;24.752;2023-03-14T14:17:30;5.10;;;3.70;;
10947;SDS011;5526;42.070;24.752;2023-03-14T14:20:00;3.55;;;3.25;;
10947;SDS011;5526;42.070;24.752;2023-03-14T14:22:31;5.50;;;3.20;;
10947;SDS011;5526;42.070;24.752;2023-03-14T14:24:59;4.03;;;3.17;;
10947;SDS011;5526;42.070;24.752;2023-03-14T14:27:28;5.15;;;3.58;;
10947;SDS011;5526;42.070;24.752;2023-03-14T14:30:00;11.35;;;3.60;;
10947;SDS011;5526;42.070;24.752;2023-03-14T14:32:34;3.78;;;3.47;;
10947;SDS011;5526;42.070;24.752;2023-03-14T14:35:03;4.72;;;3.80;;
10947;SDS011;5526;42.070;24.752;2023-03-14T14:37:33;4.25;;;3.85;;
10947;SDS011;5526;42.070;24.752;2023-03-14T14:40:07;5.80;;;4.13;;
10947;SDS011;5526;42.070;24.752;2023-03-14T14:42:39;4.78;;;4.20;;
10947;SDS011;5526;42.070;24.752;2023-03-14T14:45:09;6.22;;;4.10;;
10947;SDS011;5526;42.070;24.752;2023-03-14T14:47:47;7.20;;;4.28;;
10947;SDS011;5526;42.070;24.752;2023-03-14T14:50:20;4.80;;;4.15;;
10947;SDS011;5526;42.070;24.752;2023-03-14T14:52:57;4.88;;;4.47;;
10947;SDS011;5526;42.070;24.752;2023-03-14T14:55:28;5.63;;;4.20;;
10947;SDS011;5526;42.070;24.752;2023-03-14T14:57:57;5.35;;;4.13;;
10947;SDS011;5526;42.070;24.752;2023-03-14T15:00:25;4.57;;;4.18;;
10947;SDS011;5526;42.070;24.752;2023-03-14T15:02:54;5.90;;;4.30;;
10947;SDS011;5526;42.070;24.752;2023-03-14T15:05:25;4.07;;;3.67;;
10947;SDS011;5526;42.070;24.752;2023-03-14T15:07:56;4.25;;;3.85;;
10947;SDS011;5526;42.070;24.752;2023-03-14T15:10:24;5.95;;;3.58;;
10947;SDS011;5526;42.070;24.752;2023-03-14T15:12:51;3.92;;;3.63;;
10947;SDS011;5526;42.070;24.752;2023-03-14T15:15:19;4.85;;;3.50;;